createdAt,value
2022-12-11T00:01:12.372Z,87.93
2022-12-11T00:03:36.861Z,82.55
2022-12-11T00:06:01.334Z,84.35
2022-12-11T00:08:27.243Z,85.22
2022-12-11T00:10:52.002Z,79.25
2022-12-11T00:13:16.621Z,93.82
2022-12-11T00:15:41.111Z,80.18
2022-12-11T00:18:06.279Z,83.90
2022-12-11T00:20:30.571Z,84.93
2022-12-11T00:22:55.161Z,83.20
2022-12-11T00:25:21.081Z,86.10
2022-12-11T00:27:47.431Z,78.03
2022-12-11T00:30:13.256Z,84.40
2022-12-11T00:32:37.928Z,87.43
2022-12-11T00:35:02.456Z,78.13
2022-12-11T00:37:27.893Z,87.05
2022-12-11T00:39:52.588Z,90.03
2022-12-11T00:42:18.300Z,85.68
2022-12-11T00:44:42.868Z,82.15
2022-12-11T00:47:08.644Z,85.25
2022-12-11T00:49:33.017Z,75.00
2022-12-11T00:51:57.545Z,83.15
2022-12-11T00:54:22.141Z,87.57
2022-12-11T00:56:46.812Z,81.97
2022-12-11T00:59:12.592Z,86.15
2022-12-11T01:01:37.268Z,87.25
2022-12-11T01:04:01.583Z,74.95
2022-12-11T01:06:27.896Z,72.78
2022-12-11T01:09:14.597Z,81.88
2022-12-11T01:11:38.571Z,86.25
2022-12-11T01:14:03.078Z,80.57
2022-12-11T01:16:29.169Z,84.57
2022-12-11T01:18:53.733Z,88.15
2022-12-11T01:21:18.089Z,84.35
2022-12-11T01:23:42.471Z,85.60
2022-12-11T01:26:09.170Z,89.35
2022-12-11T01:28:33.750Z,84.97
2022-12-11T01:30:58.142Z,72.63
2022-12-11T01:33:23.866Z,85.57
2022-12-11T01:35:48.197Z,83.40
2022-12-11T01:38:12.736Z,89.78
2022-12-11T01:40:37.512Z,87.22
2022-12-11T01:43:01.987Z,81.28
2022-12-11T01:45:33.628Z,83.03
2022-12-11T01:48:03.288Z,80.95
2022-12-11T01:50:30.572Z,78.72
2022-12-11T01:52:55.139Z,75.80
2022-12-11T01:55:20.318Z,84.90
2022-12-11T01:57:47.919Z,87.97
2022-12-11T02:00:13.821Z,78.28
2022-12-11T02:02:38.338Z,88.30
2022-12-11T02:05:04.725Z,87.13
2022-12-11T02:07:33.576Z,76.47
2022-12-11T02:09:58.059Z,82.45
2022-12-11T02:12:29.264Z,85.40
2022-12-11T02:15:01.249Z,87.40
2022-12-11T02:17:32.990Z,80.57
2022-12-11T02:20:05.313Z,73.03
2022-12-11T02:22:48.498Z,77.32
2022-12-11T02:25:22.043Z,71.00
2022-12-11T02:27:49.027Z,73.47
2022-12-11T02:30:16.713Z,71.28
2022-12-11T02:32:47.235Z,73.30
2022-12-11T02:35:16.772Z,67.10
2022-12-11T02:37:45.546Z,75.30
2022-12-11T02:40:13.862Z,68.90
2022-12-11T02:42:41.672Z,67.70
2022-12-11T02:45:08.134Z,86.38
2022-12-11T02:47:35.847Z,66.50
2022-12-11T02:50:02.530Z,71.10
2022-12-11T02:52:28.381Z,75.57
2022-12-11T02:54:55.023Z,71.40
2022-12-11T02:57:26.710Z,65.88
2022-12-11T02:59:51.180Z,72.35
2022-12-11T03:02:16.852Z,69.43
2022-12-11T03:04:44.466Z,75.15
2022-12-11T03:07:13.736Z,75.45
2022-12-11T03:09:38.150Z,67.32
2022-12-11T03:12:02.661Z,75.15
2022-12-11T03:14:27.016Z,61.58
2022-12-11T03:17:01.523Z,63.17
2022-12-11T03:19:33.339Z,81.07
2022-12-11T03:22:04.896Z,67.63
2022-12-11T03:24:37.264Z,76.90
2022-12-11T03:27:10.867Z,64.97
2022-12-11T03:29:40.524Z,63.75
2022-12-11T03:32:11.357Z,68.93
2022-12-11T03:34:46.019Z,72.13
2022-12-11T03:37:12.919Z,70.72
2022-12-11T03:39:42.183Z,66.63
2022-12-11T03:42:10.606Z,84.85
2022-12-11T03:44:37.293Z,94.05
2022-12-11T03:47:05.927Z,139.27
2022-12-11T03:49:34.918Z,116.43
2022-12-11T03:52:03.034Z,93.20
2022-12-11T03:54:29.556Z,70.88
2022-12-11T03:56:57.142Z,62.03
2022-12-11T03:59:21.478Z,56.92
2022-12-11T04:01:45.903Z,60.13
2022-12-11T04:04:10.243Z,84.28
2022-12-11T04:06:34.535Z,76.20
2022-12-11T04:08:58.913Z,75.50
2022-12-11T04:11:36.409Z,74.63
2022-12-11T04:14:14.717Z,76.93
2022-12-11T04:16:39.612Z,76.63
2022-12-11T04:19:17.732Z,72.18
2022-12-11T04:21:59.868Z,69.00
2022-12-11T04:24:24.309Z,52.88
2022-12-11T04:26:50.033Z,58.25
2022-12-11T04:29:14.721Z,47.65
2022-12-11T04:31:39.025Z,54.10
2022-12-11T04:34:03.435Z,51.60
2022-12-11T04:36:27.774Z,57.72
2022-12-11T04:38:52.538Z,54.95
2022-12-11T04:41:17.726Z,58.53
2022-12-11T04:43:45.215Z,65.28
2022-12-11T04:46:13.788Z,61.28
2022-12-11T04:48:39.799Z,59.38
2022-12-11T04:51:04.583Z,62.58
2022-12-11T04:53:29.397Z,64.47
2022-12-11T04:55:53.769Z,58.90
2022-12-11T04:58:18.162Z,56.08
2022-12-11T05:00:44.060Z,52.38
2022-12-11T05:03:08.740Z,54.25
2022-12-11T05:05:33.197Z,53.90
2022-12-11T05:07:57.648Z,52.95
2022-12-11T05:10:21.998Z,50.70
2022-12-11T05:12:46.266Z,54.03
2022-12-11T05:15:11.866Z,54.15
2022-12-11T05:17:37.800Z,60.22
2022-12-11T05:20:02.431Z,53.03
2022-12-11T05:22:27.131Z,58.47
2022-12-11T05:24:51.553Z,64.80
2022-12-11T05:27:16.057Z,53.13
2022-12-11T05:29:40.434Z,54.88
2022-12-11T05:32:05.285Z,49.78
2022-12-11T05:34:31.189Z,55.75
2022-12-11T05:36:55.587Z,54.03
2022-12-11T05:39:20.556Z,53.63
2022-12-11T05:41:46.081Z,48.47
2022-12-11T05:44:12.551Z,51.33
2022-12-11T05:46:36.898Z,52.03
2022-12-11T05:49:03.319Z,45.05
2022-12-11T05:51:30.900Z,58.15
2022-12-11T05:53:56.840Z,52.40
2022-12-11T05:56:23.928Z,50.72
2022-12-11T05:58:49.354Z,52.30
2022-12-11T06:01:16.923Z,51.28
2022-12-11T06:03:41.313Z,45.17
2022-12-11T06:06:06.934Z,47.22
2022-12-11T06:08:33.280Z,52.67
2022-12-11T06:10:57.701Z,43.13
2022-12-11T06:13:22.090Z,56.33
2022-12-11T06:15:46.598Z,67.25
2022-12-11T06:18:11.342Z,77.00
2022-12-11T06:20:36.277Z,128.73
2022-12-11T06:23:00.694Z,145.10
2022-12-11T06:25:26.401Z,93.35
2022-12-11T06:27:51.773Z,189.50
2022-12-11T06:30:16.618Z,115.47
2022-12-11T06:32:40.920Z,60.85
2022-12-11T06:35:05.955Z,52.95
2022-12-11T06:37:30.347Z,53.45
2022-12-11T06:39:56.062Z,55.00
2022-12-11T06:42:24.829Z,56.72
2022-12-11T06:44:49.593Z,55.95
2022-12-11T06:47:14.048Z,49.22
2022-12-11T06:49:38.397Z,42.92
2022-12-11T06:52:02.657Z,45.15
2022-12-11T06:54:28.048Z,44.17
2022-12-11T06:56:52.397Z,36.67
2022-12-11T06:59:19.020Z,44.03
2022-12-11T07:01:43.425Z,38.90
2022-12-11T07:04:07.854Z,42.08
2022-12-11T07:06:32.323Z,42.00
2022-12-11T07:08:57.309Z,39.30
2022-12-11T07:11:22.910Z,43.67
2022-12-11T07:13:47.709Z,45.05
2022-12-11T07:16:14.838Z,49.72
2022-12-11T07:18:39.492Z,41.30
2022-12-11T07:21:03.838Z,43.17
2022-12-11T07:23:29.158Z,40.47
2022-12-11T07:25:53.862Z,40.20
2022-12-11T07:28:18.583Z,39.58
2022-12-11T07:30:43.199Z,43.13
2022-12-11T07:33:09.206Z,44.40
2022-12-11T07:35:35.579Z,42.55
2022-12-11T07:38:00.026Z,42.03
2022-12-11T07:40:24.499Z,43.90
2022-12-11T07:42:49.132Z,43.53
2022-12-11T07:45:13.897Z,43.72
2022-12-11T07:47:38.637Z,42.42
2022-12-11T07:50:04.586Z,45.92
2022-12-11T07:52:31.730Z,51.03
2022-12-11T07:54:56.477Z,49.95
2022-12-11T07:57:20.915Z,44.95
2022-12-11T07:59:45.232Z,54.90
2022-12-11T08:02:12.023Z,44.05
2022-12-11T08:04:36.485Z,44.53
2022-12-11T08:07:02.339Z,43.78
2022-12-11T08:09:26.630Z,45.83
2022-12-11T08:11:51.820Z,51.30
2022-12-11T08:14:17.049Z,45.55
2022-12-11T08:16:43.209Z,41.72
2022-12-11T08:19:07.662Z,41.80
2022-12-11T08:21:33.529Z,48.80
2022-12-11T08:23:59.641Z,43.92
2022-12-11T08:26:26.153Z,35.97
2022-12-11T08:28:50.837Z,33.20
2022-12-11T08:31:18.090Z,32.03
2022-12-11T08:33:49.026Z,28.80
2022-12-11T08:36:15.985Z,33.67
2022-12-11T08:38:40.770Z,29.35
2022-12-11T08:41:11.611Z,27.15
2022-12-11T08:43:36.464Z,22.75
2022-12-11T08:46:00.890Z,22.00
2022-12-11T08:48:25.424Z,20.95
2022-12-11T08:50:49.980Z,24.95
2022-12-11T08:53:14.930Z,15.85
2022-12-11T08:55:42.204Z,18.70
2022-12-11T08:58:08.106Z,22.77
2022-12-11T09:00:36.758Z,15.95
2022-12-11T09:03:01.217Z,17.48
2022-12-11T09:05:25.658Z,17.38
2022-12-11T09:07:50.129Z,13.18
2022-12-11T09:10:14.502Z,13.35
2022-12-11T09:12:39.297Z,15.52
2022-12-11T09:15:05.191Z,11.57
2022-12-11T09:17:31.043Z,15.10
2022-12-11T09:19:55.338Z,10.40
2022-12-11T09:22:19.758Z,12.85
2022-12-11T09:24:44.761Z,13.93
2022-12-11T09:27:09.222Z,11.93
2022-12-11T09:29:33.883Z,14.65
2022-12-11T09:31:59.757Z,18.05
2022-12-11T09:34:29.077Z,12.75
2022-12-11T09:36:56.147Z,18.33
2022-12-11T09:39:20.710Z,15.95
2022-12-11T09:41:53.875Z,17.98
2022-12-11T09:44:32.707Z,14.32
2022-12-11T09:47:00.227Z,10.30
2022-12-11T09:49:33.408Z,13.48
2022-12-11T09:52:07.968Z,12.40
2022-12-11T09:54:33.301Z,13.93
2022-12-11T09:57:06.548Z,14.05
2022-12-11T09:59:36.343Z,17.92
2022-12-11T10:02:16.253Z,17.60
2022-12-11T10:04:51.431Z,18.50
2022-12-11T10:07:20.161Z,18.00
2022-12-11T10:09:51.453Z,15.23
2022-12-11T10:12:35.349Z,14.15
2022-12-11T10:15:15.938Z,17.00
2022-12-11T10:17:45.945Z,20.35
2022-12-11T10:22:46.652Z,11.88
2022-12-11T10:25:20.551Z,14.32
2022-12-11T10:27:45.461Z,16.75
2022-12-11T10:30:17.427Z,20.23
2022-12-11T10:32:55.710Z,16.40
2022-12-11T10:35:28.269Z,16.58
2022-12-11T10:37:53.574Z,17.40
2022-12-11T10:40:19.557Z,17.35
2022-12-11T10:42:53.979Z,13.80
2022-12-11T10:45:18.457Z,18.00
2022-12-11T10:47:44.579Z,16.67
2022-12-11T10:50:09.488Z,17.83
2022-12-11T10:52:38.124Z,15.90
2022-12-11T10:55:07.165Z,17.25
2022-12-11T10:57:35.324Z,17.92
2022-12-11T11:00:00.687Z,13.40
2022-12-11T11:02:27.847Z,15.98
2022-12-11T11:04:55.183Z,12.52
2022-12-11T11:07:23.845Z,14.85
2022-12-11T11:09:49.320Z,13.18
2022-12-11T11:12:22.780Z,11.85
2022-12-11T11:14:47.237Z,16.30
2022-12-11T11:17:17.169Z,14.15
2022-12-11T11:22:14.771Z,15.70
2022-12-11T11:24:43.043Z,20.40
2022-12-11T11:27:14.434Z,16.60
2022-12-11T11:29:39.196Z,16.33
2022-12-11T11:32:17.770Z,13.52
2022-12-11T11:34:42.497Z,13.90
2022-12-11T11:37:26.261Z,13.30
2022-12-11T11:39:54.199Z,13.32
2022-12-11T11:42:27.719Z,19.05
2022-12-11T11:45:04.234Z,12.57
2022-12-11T11:47:33.065Z,15.68
2022-12-11T11:50:05.359Z,18.77
2022-12-11T11:52:39.745Z,14.02
2022-12-11T11:55:10.982Z,17.77
2022-12-11T11:57:43.870Z,16.15
2022-12-11T12:00:17.200Z,18.27
2022-12-11T12:02:42.841Z,12.80
2022-12-11T12:05:07.722Z,17.60
2022-12-11T12:07:39.253Z,15.70
2022-12-11T12:10:14.681Z,14.10
2022-12-11T12:12:46.988Z,13.13
2022-12-11T12:15:26.613Z,17.98
2022-12-11T12:17:56.378Z,15.75
2022-12-11T12:23:04.289Z,22.20
2022-12-11T12:25:34.110Z,17.48
2022-12-11T12:28:05.972Z,15.35
2022-12-11T12:30:38.802Z,14.57
2022-12-11T12:33:16.868Z,21.65
2022-12-11T12:35:45.877Z,25.35
2022-12-11T12:38:22.854Z,16.95
2022-12-11T12:40:58.177Z,21.08
2022-12-11T12:43:37.662Z,23.75
2022-12-11T12:46:11.442Z,16.00
2022-12-11T12:48:36.531Z,16.85
2022-12-11T12:51:01.292Z,24.65
2022-12-11T12:53:29.949Z,22.17
2022-12-11T12:55:55.110Z,22.17
2022-12-11T12:58:32.058Z,17.15
2022-12-11T13:01:07.710Z,22.38
2022-12-11T13:03:34.550Z,20.35
2022-12-11T13:06:01.337Z,21.50
2022-12-11T13:08:29.869Z,22.52
2022-12-11T13:11:03.153Z,19.15
2022-12-11T13:13:37.199Z,19.27
2022-12-11T13:16:23.576Z,19.13
2022-12-11T13:18:49.651Z,23.10
2022-12-11T13:21:33.239Z,18.60
2022-12-11T13:24:19.379Z,21.85
2022-12-11T13:26:44.842Z,17.65
2022-12-11T13:29:31.004Z,26.35
2022-12-11T13:32:00.649Z,22.05
2022-12-11T13:34:25.811Z,30.48
2022-12-11T13:36:52.322Z,28.42
2022-12-11T13:39:22.316Z,27.50
2022-12-11T13:41:51.433Z,24.98
2022-12-11T13:44:21.303Z,33.13
2022-12-11T13:46:45.734Z,29.70
2022-12-11T13:49:23.193Z,35.05
2022-12-11T13:51:54.482Z,27.25
2022-12-11T13:54:20.969Z,34.67
2022-12-11T13:56:59.800Z,26.27
2022-12-11T13:59:31.911Z,25.92
2022-12-11T14:02:02.501Z,24.52
2022-12-11T14:04:28.944Z,25.15
2022-12-11T14:06:53.523Z,29.13
2022-12-11T14:09:23.474Z,27.60
2022-12-11T14:11:53.544Z,26.95
2022-12-11T14:14:26.445Z,31.58
2022-12-11T14:16:52.409Z,29.27
2022-12-11T14:19:19.850Z,32.65
2022-12-11T14:21:44.227Z,27.63
2022-12-11T14:24:15.802Z,27.60
2022-12-11T14:26:41.701Z,25.30
2022-12-11T14:29:06.100Z,21.55
2022-12-11T14:31:34.966Z,19.35
2022-12-11T14:34:04.126Z,19.70
2022-12-11T14:36:33.157Z,15.87
2022-12-11T14:39:01.854Z,21.10
2022-12-11T14:41:31.070Z,16.98
2022-12-11T14:44:01.245Z,24.15
2022-12-11T14:49:00.850Z,18.60
2022-12-11T14:51:30.027Z,13.50
2022-12-11T14:53:55.863Z,14.88
2022-12-11T14:56:24.614Z,13.73
2022-12-11T14:58:54.468Z,15.13
2022-12-11T15:01:26.797Z,14.13
2022-12-11T15:04:02.472Z,13.25
2022-12-11T15:06:30.258Z,13.75
2022-12-11T15:08:54.809Z,12.90
2022-12-11T15:11:20.548Z,11.10
2022-12-11T15:13:53.220Z,13.88
2022-12-11T15:16:17.960Z,16.27
2022-12-11T15:18:44.507Z,14.63
2022-12-11T15:21:11.818Z,13.20
2022-12-11T15:23:50.321Z,14.60
2022-12-11T15:26:14.792Z,15.05
2022-12-11T15:28:40.687Z,16.13
2022-12-11T15:31:09.019Z,16.42
2022-12-11T15:33:34.901Z,14.82
2022-12-11T15:36:03.255Z,14.80
2022-12-11T15:38:33.632Z,11.70
2022-12-11T15:40:58.247Z,12.52
2022-12-11T15:43:22.641Z,12.30
2022-12-11T15:45:47.040Z,19.85
2022-12-11T15:48:12.874Z,18.52
2022-12-11T15:50:37.678Z,14.77
2022-12-11T15:53:03.410Z,17.58
2022-12-11T15:55:29.855Z,17.00
2022-12-11T15:57:56.467Z,14.43
2022-12-11T16:00:22.303Z,18.90
2022-12-11T16:02:47.405Z,13.15
2022-12-11T16:05:12.349Z,15.15
2022-12-11T16:07:36.789Z,13.70
2022-12-11T16:10:02.624Z,15.18
2022-12-11T16:12:27.080Z,13.40
2022-12-11T16:14:52.144Z,13.75
2022-12-11T16:17:18.547Z,18.48
2022-12-11T16:19:44.388Z,13.07
2022-12-11T16:22:09.819Z,14.75
2022-12-11T16:24:35.225Z,15.52
2022-12-11T16:27:00.953Z,11.90
2022-12-11T16:29:25.362Z,11.88
2022-12-11T16:31:49.758Z,15.45
2022-12-11T16:34:14.198Z,10.70
2022-12-11T16:36:38.522Z,11.07
2022-12-11T16:39:03.087Z,12.93
2022-12-11T16:41:27.460Z,11.80
2022-12-11T16:43:54.734Z,12.65
2022-12-11T16:46:19.480Z,12.77
2022-12-11T16:48:46.088Z,16.40
2022-12-11T16:51:10.655Z,13.70
2022-12-11T16:53:35.272Z,11.88
2022-12-11T16:55:59.971Z,11.57
2022-12-11T16:58:24.627Z,15.77
2022-12-11T17:00:51.210Z,17.10
2022-12-11T17:03:16.204Z,14.90
2022-12-11T17:05:41.385Z,10.77
2022-12-11T17:08:06.213Z,15.43
2022-12-11T17:10:30.893Z,12.93
2022-12-11T17:12:58.126Z,12.98
2022-12-11T17:15:23.569Z,14.38
2022-12-11T17:17:49.487Z,18.25
2022-12-11T17:20:14.043Z,15.20
2022-12-11T17:22:38.541Z,16.88
2022-12-11T17:25:03.133Z,14.25
2022-12-11T17:27:27.910Z,16.50
2022-12-11T17:29:52.358Z,16.33
2022-12-11T17:32:18.513Z,13.38
2022-12-11T17:34:44.334Z,14.75
2022-12-11T17:37:08.721Z,12.65
2022-12-11T17:39:35.567Z,15.13
2022-12-11T17:42:00.877Z,13.48
2022-12-11T17:44:26.784Z,13.65
2022-12-11T17:46:51.291Z,12.13
2022-12-11T17:49:18.964Z,16.83
2022-12-11T17:51:44.980Z,10.50
2022-12-11T17:54:09.557Z,10.23
2022-12-11T17:56:36.325Z,9.98
2022-12-11T17:59:01.196Z,12.10
2022-12-11T18:01:25.872Z,11.27
2022-12-11T18:03:51.156Z,11.02
2022-12-11T18:06:17.804Z,11.27
2022-12-11T18:08:46.836Z,11.50
2022-12-11T18:11:13.312Z,17.33
2022-12-11T18:13:38.332Z,10.88
2022-12-11T18:16:04.360Z,13.65
2022-12-11T18:18:29.136Z,10.98
2022-12-11T18:20:54.063Z,11.77
2022-12-11T18:23:18.810Z,13.70
2022-12-11T18:25:44.822Z,13.98
2022-12-11T18:28:09.840Z,13.63
2022-12-11T18:30:36.244Z,14.07
2022-12-11T18:33:00.886Z,15.82
2022-12-11T18:35:25.752Z,14.38
2022-12-11T18:37:50.633Z,10.80
2022-12-11T18:40:15.137Z,13.38
2022-12-11T18:42:41.523Z,13.10
2022-12-11T18:45:07.067Z,12.85
2022-12-11T18:47:31.523Z,11.65
2022-12-11T18:50:02.619Z,14.93
2022-12-11T18:52:32.098Z,14.95
2022-12-11T18:54:56.716Z,13.23
2022-12-11T18:57:21.853Z,12.23
2022-12-11T18:59:51.349Z,12.55
2022-12-11T19:02:16.370Z,15.10
2022-12-11T19:04:41.395Z,18.92
2022-12-11T19:07:05.960Z,15.45
2022-12-11T19:09:33.993Z,12.32
2022-12-11T19:12:02.377Z,12.57
2022-12-11T19:14:27.030Z,14.77
2022-12-11T19:16:53.629Z,13.77
2022-12-11T19:19:20.204Z,14.98
2022-12-11T19:21:45.779Z,15.73
2022-12-11T19:24:13.138Z,12.05
2022-12-11T19:26:37.714Z,10.50
2022-12-11T19:29:02.542Z,15.93
2022-12-11T19:31:28.116Z,13.73
2022-12-11T19:33:54.673Z,15.77
2022-12-11T19:36:21.163Z,18.25
2022-12-11T19:38:46.411Z,14.82
2022-12-11T19:41:15.478Z,17.13
2022-12-11T19:43:39.949Z,21.57
2022-12-11T19:46:05.753Z,16.85
2022-12-11T19:48:30.304Z,16.70
2022-12-11T19:50:57.393Z,20.98
2022-12-11T19:53:21.888Z,19.25
2022-12-11T19:55:51.951Z,20.48
2022-12-11T19:58:16.388Z,20.10
2022-12-11T20:00:40.832Z,20.88
2022-12-11T20:03:05.401Z,23.50
2022-12-11T20:05:30.056Z,21.60
2022-12-11T20:07:59.495Z,26.90
2022-12-11T20:10:30.134Z,19.23
2022-12-11T20:12:56.731Z,23.83
2022-12-11T20:15:21.215Z,21.98
2022-12-11T20:17:47.363Z,21.00
2022-12-11T20:20:12.777Z,21.85
2022-12-11T20:22:37.196Z,23.50
2022-12-11T20:25:03.016Z,22.40
2022-12-11T20:27:28.538Z,26.45
2022-12-11T20:29:52.885Z,26.92
2022-12-11T20:32:17.384Z,27.40
2022-12-11T20:34:41.912Z,32.28
2022-12-11T20:37:06.575Z,28.85
2022-12-11T20:39:32.355Z,28.20
2022-12-11T20:41:59.651Z,28.20
2022-12-11T20:44:24.042Z,29.17
2022-12-11T20:46:48.572Z,26.63
2022-12-11T20:49:13.841Z,23.95
2022-12-11T20:51:38.201Z,30.25
2022-12-11T20:54:02.616Z,29.45
2022-12-11T20:56:28.757Z,28.95
2022-12-11T20:58:54.863Z,31.38
2022-12-11T21:01:22.253Z,30.40
2022-12-11T21:03:47.596Z,29.23
2022-12-11T21:06:19.847Z,29.42
2022-12-11T21:08:44.449Z,25.75
2022-12-11T21:11:09.044Z,27.45
2022-12-11T21:13:33.447Z,25.63
2022-12-11T21:16:04.759Z,29.00
2022-12-11T21:18:30.190Z,29.23
2022-12-11T21:20:58.382Z,30.88
2022-12-11T21:23:22.771Z,29.65
2022-12-11T21:25:47.261Z,28.17
2022-12-11T21:28:11.762Z,27.90
2022-12-11T21:30:40.080Z,28.15
2022-12-11T21:33:06.031Z,29.25
2022-12-11T21:35:30.336Z,34.53
2022-12-11T21:37:54.714Z,30.85
2022-12-11T21:40:19.863Z,30.67
2022-12-11T21:42:44.349Z,30.65
2022-12-11T21:47:53.425Z,28.02
2022-12-11T21:50:19.780Z,29.50
2022-12-11T21:52:44.296Z,38.20
2022-12-11T21:55:09.466Z,32.17
2022-12-11T21:57:34.687Z,31.70
2022-12-11T22:00:00.207Z,28.30
2022-12-11T22:02:24.833Z,29.95
2022-12-11T22:04:49.147Z,31.30
2022-12-11T22:07:16.435Z,29.38
2022-12-11T22:09:40.760Z,28.90
2022-12-11T22:12:05.547Z,28.67
2022-12-11T22:14:31.476Z,31.13
2022-12-11T22:16:56.832Z,32.67
2022-12-11T22:19:21.313Z,29.08
2022-12-11T22:21:45.689Z,29.65
2022-12-11T22:24:11.470Z,34.03
2022-12-11T22:26:35.877Z,24.63
2022-12-11T22:29:00.560Z,30.60
2022-12-11T22:31:26.940Z,29.27
2022-12-11T22:33:53.711Z,29.88
2022-12-11T22:36:19.178Z,34.63
2022-12-11T22:38:43.472Z,32.00
2022-12-11T22:41:18.859Z,31.40
2022-12-11T22:43:46.380Z,36.63
2022-12-11T22:46:15.727Z,31.92
2022-12-11T22:48:40.154Z,34.35
2022-12-11T22:51:07.055Z,32.28
2022-12-11T22:53:31.604Z,31.83
2022-12-11T22:55:56.177Z,34.92
2022-12-11T22:58:22.185Z,33.25
2022-12-11T23:00:47.064Z,33.63
2022-12-11T23:03:11.527Z,35.15
2022-12-11T23:05:36.831Z,33.05
2022-12-11T23:08:01.635Z,32.60
2022-12-11T23:10:26.046Z,36.17
2022-12-11T23:12:50.462Z,37.13
2022-12-11T23:15:16.264Z,35.42
2022-12-11T23:17:40.652Z,38.40
2022-12-11T23:20:06.001Z,34.88
2022-12-11T23:22:30.410Z,38.45
2022-12-11T23:24:54.766Z,36.83
2022-12-11T23:27:19.117Z,38.75
2022-12-11T23:29:43.561Z,39.83
2022-12-11T23:32:09.409Z,38.88
2022-12-11T23:34:33.770Z,38.75
2022-12-11T23:36:58.274Z,41.28
2022-12-11T23:39:23.047Z,34.90
2022-12-11T23:41:48.147Z,35.38
2022-12-11T23:44:13.512Z,38.25
2022-12-11T23:46:38.224Z,38.60
2022-12-11T23:49:05.012Z,36.40
2022-12-11T23:51:29.525Z,42.72
2022-12-11T23:53:54.547Z,40.58
2022-12-11T23:56:22.128Z,36.22
2022-12-11T23:58:46.986Z,38.28
